sensor_id;sensor_type;location;lat;lon;timestamp;noise_LAeq;noise_LA_min;noise_LA_max;noise_LA01;noise_LA95
85755;Laerm;76194;51.984;5.760;2024-02-23T00:00:31;47.62;39.84;58.54;;
85755;Laerm;76194;51.984;5.760;2024-02-23T00:03:00;57.81;44.38;73.54;;
85755;Laerm;76194;51.984;5.760;2024-02-23T00:05:29;55.68;45.09;65.74;;
85755;Laerm;76194;51.984;5.760;2024-02-23T00:08:00;51.27;41.90;72.59;;
85755;Laerm;76194;51.984;5.760;2024-02-23T00:10:29;49.42;44.75;58.01;;
85755;Laerm;76194;51.984;5.760;2024-02-23T00:12:58;48.12;42.27;56.25;;
85755;Laerm;76194;51.984;5.760;2024-02-23T00:15:27;48.26;42.53;60.38;;
85755;Laerm;76194;51.984;5.760;2024-02-23T00:17:56;46.52;41.56;55.55;;
85755;Laerm;76194;51.984;5.760;2024-02-23T00:20:24;47.09;41.92;54.57;;
85755;Laerm;76194;51.984;5.760;2024-02-23T00:22:53;47.44;40.63;59.02;;
85755;Laerm;76194;51.984;5.760;2024-02-23T00:25:24;45.90;39.61;58.05;;
85755;Laerm;76194;51.984;5.760;2024-02-23T00:27:53;46.16;38.68;57.48;;
85755;Laerm;76194;51.984;5.760;2024-02-23T00:30:22;46.65;39.77;57.30;;
85755;Laerm;76194;51.984;5.760;2024-02-23T00:32:50;47.12;38.71;60.24;;
85755;Laerm;76194;51.984;5.760;2024-02-23T00:35:19;47.61;40.26;55.38;;
85755;Laerm;76194;51.984;5.760;2024-02-23T00:37:48;45.69;40.11;56.52;;
85755;Laerm;76194;51.984;5.760;2024-02-23T00:40:16;48.50;42.02;55.89;;
85755;Laerm;76194;51.984;5.760;2024-02-23T00:42:48;49.65;43.25;57.09;;
85755;Laerm;76194;51.984;5.760;2024-02-23T00:45:17;50.93;44.82;57.51;;
85755;Laerm;76194;51.984;5.760;2024-02-23T00:47:46;53.74;47.54;62.39;;
85755;Laerm;76194;51.984;5.760;2024-02-23T00:50:15;56.96;49.39;64.75;;
85755;Laerm;76194;51.984;5.760;2024-02-23T00:52:44;51.37;48.37;60.41;;
85755;Laerm;76194;51.984;5.760;2024-02-23T00:55:13;54.36;49.26;60.86;;
85755;Laerm;76194;51.984;5.760;2024-02-23T00:57:41;64.03;50.10;71.97;;
85755;Laerm;76194;51.984;5.760;2024-02-23T01:00:13;70.02;51.28;75.65;;
85755;Laerm;76194;51.984;5.760;2024-02-23T01:02:42;57.22;49.86;67.67;;
85755;Laerm;76194;51.984;5.760;2024-02-23T01:05:11;54.43;47.27;65.32;;
85755;Laerm;76194;51.984;5.760;2024-02-23T01:07:39;55.81;48.89;68.10;;
85755;Laerm;76194;51.984;5.760;2024-02-23T01:10:08;55.40;44.62;66.88;;
85755;Laerm;76194;51.984;5.760;2024-02-23T01:12:37;50.76;42.80;65.41;;
85755;Laerm;76194;51.984;5.760;2024-02-23T01:15:06;50.59;43.48;66.20;;
85755;Laerm;76194;51.984;5.760;2024-02-23T01:17:38;49.84;41.83;62.82;;
85755;Laerm;76194;51.984;5.760;2024-02-23T01:20:07;49.84;41.31;63.89;;
85755;Laerm;76194;51.984;5.760;2024-02-23T01:22:35;48.88;40.22;61.82;;
85755;Laerm;76194;51.984;5.760;2024-02-23T01:25:05;49.41;41.76;60.84;;
85755;Laerm;76194;51.984;5.760;2024-02-23T01:27:34;49.95;42.14;65.31;;
85755;Laerm;76194;51.984;5.760;2024-02-23T01:30:03;51.57;41.87;63.84;;
85755;Laerm;76194;51.984;5.760;2024-02-23T01:32:32;50.82;44.42;60.54;;
85755;Laerm;76194;51.984;5.760;2024-02-23T01:35:01;49.23;43.17;58.57;;
85755;Laerm;76194;51.984;5.760;2024-02-23T01:37:29;52.12;45.39;61.30;;
85755;Laerm;76194;51.984;5.760;2024-02-23T01:39:59;52.37;45.01;62.14;;
85755;Laerm;76194;51.984;5.760;2024-02-23T01:42:28;52.13;45.18;61.69;;
85755;Laerm;76194;51.984;5.760;2024-02-23T01:44:57;50.96;43.51;62.28;;
85755;Laerm;76194;51.984;5.760;2024-02-23T01:47:26;51.27;43.04;59.97;;
85755;Laerm;76194;51.984;5.760;2024-02-23T01:49:56;50.59;42.87;60.01;;
85755;Laerm;76194;51.984;5.760;2024-02-23T01:52:28;49.82;41.46;63.21;;
85755;Laerm;76194;51.984;5.760;2024-02-23T01:54:57;49.28;42.69;60.32;;
85755;Laerm;76194;51.984;5.760;2024-02-23T01:57:26;50.35;43.98;58.24;;
85755;Laerm;76194;51.984;5.760;2024-02-23T01:59:55;48.64;41.17;57.80;;
85755;Laerm;76194;51.984;5.760;2024-02-23T02:02:24;49.86;43.30;60.78;;
85755;Laerm;76194;51.984;5.760;2024-02-23T02:04:53;49.49;43.22;58.08;;
85755;Laerm;76194;51.984;5.760;2024-02-23T02:07:22;48.94;42.70;63.79;;
85755;Laerm;76194;51.984;5.760;2024-02-23T02:09:53;47.69;41.11;57.89;;
85755;Laerm;76194;51.984;5.760;2024-02-23T02:12:28;47.81;41.71;60.63;;
85755;Laerm;76194;51.984;5.760;2024-02-23T02:14:57;49.26;43.91;59.30;;
85755;Laerm;76194;51.984;5.760;2024-02-23T02:17:26;47.23;41.04;63.61;;
85755;Laerm;76194;51.984;5.760;2024-02-23T02:19:55;47.30;41.18;65.91;;
85755;Laerm;76194;51.984;5.760;2024-02-23T02:22:27;47.88;41.60;60.05;;
85755;Laerm;76194;51.984;5.760;2024-02-23T02:24:58;47.16;41.61;58.07;;
85755;Laerm;76194;51.984;5.760;2024-02-23T02:27:27;46.55;40.75;57.38;;
85755;Laerm;76194;51.984;5.760;2024-02-23T02:29:56;48.80;42.01;67.96;;
85755;Laerm;76194;51.984;5.760;2024-02-23T02:32:25;46.60;42.47;56.91;;
85755;Laerm;76194;51.984;5.760;2024-02-23T02:34:54;50.49;41.57;70.35;;
85755;Laerm;76194;51.984;5.760;2024-02-23T02:37:23;54.65;42.56;69.80;;
85755;Laerm;76194;51.984;5.760;2024-02-23T02:39:51;47.78;41.26;56.40;;
85755;Laerm;76194;51.984;5.760;2024-02-23T02:42:23;47.89;43.68;56.24;;
85755;Laerm;76194;51.984;5.760;2024-02-23T02:44:53;46.57;42.20;55.26;;
85755;Laerm;76194;51.984;5.760;2024-02-23T02:47:22;44.61;39.06;55.48;;
85755;Laerm;76194;51.984;5.760;2024-02-23T02:49:51;47.67;41.19;56.03;;
85755;Laerm;76194;51.984;5.760;2024-02-23T02:52:19;48.15;43.53;55.50;;
85755;Laerm;76194;51.984;5.760;2024-02-23T02:54:49;47.09;41.49;56.38;;
85755;Laerm;76194;51.984;5.760;2024-02-23T02:57:17;47.31;40.66;58.41;;
85755;Laerm;76194;51.984;5.760;2024-02-23T02:59:50;47.28;41.75;57.56;;
85755;Laerm;76194;51.984;5.760;2024-02-23T03:02:19;47.65;42.87;54.63;;
85755;Laerm;76194;51.984;5.760;2024-02-23T03:04:48;45.02;39.59;54.00;;
85755;Laerm;76194;51.984;5.760;2024-02-23T03:07:17;46.45;40.68;62.66;;
85755;Laerm;76194;51.984;5.760;2024-02-23T03:09:45;47.94;43.24;55.92;;
85755;Laerm;76194;51.984;5.760;2024-02-23T03:12:14;48.80;44.06;57.83;;
85755;Laerm;76194;51.984;5.760;2024-02-23T03:14:43;46.88;41.62;55.24;;
85755;Laerm;76194;51.984;5.760;2024-02-23T03:17:15;48.21;43.82;60.53;;
85755;Laerm;76194;51.984;5.760;2024-02-23T03:19:43;49.35;43.26;65.17;;
85755;Laerm;76194;51.984;5.760;2024-02-23T03:22:12;48.08;43.03;54.41;;
85755;Laerm;76194;51.984;5.760;2024-02-23T03:24:41;47.95;43.36;56.38;;
85755;Laerm;76194;51.984;5.760;2024-02-23T03:27:09;46.98;42.12;56.50;;
85755;Laerm;76194;51.984;5.760;2024-02-23T03:29:38;47.66;43.50;55.76;;
85755;Laerm;76194;51.984;5.760;2024-02-23T03:32:07;49.25;44.01;55.91;;
85755;Laerm;76194;51.984;5.760;2024-02-23T03:34:38;48.68;44.09;56.35;;
85755;Laerm;76194;51.984;5.760;2024-02-23T03:37:08;51.05;44.37;56.87;;
85755;Laerm;76194;51.984;5.760;2024-02-23T03:39:37;52.05;46.84;58.31;;
85755;Laerm;76194;51.984;5.760;2024-02-23T03:42:06;50.08;45.78;57.83;;
85755;Laerm;76194;51.984;5.760;2024-02-23T03:44:34;48.89;44.52;54.70;;
85755;Laerm;76194;51.984;5.760;2024-02-23T03:47:03;51.11;46.69;56.51;;
85755;Laerm;76194;51.984;5.760;2024-02-23T03:49:32;49.36;44.92;56.93;;
85755;Laerm;76194;51.984;5.760;2024-02-23T03:52:04;49.37;45.16;55.31;;
85755;Laerm;76194;51.984;5.760;2024-02-23T03:54:32;49.64;44.52;57.56;;
85755;Laerm;76194;51.984;5.760;2024-02-23T03:57:01;50.19;44.42;56.12;;
85755;Laerm;76194;51.984;5.760;2024-02-23T03:59:30;49.65;45.70;57.26;;
85755;Laerm;76194;51.984;5.760;2024-02-23T04:01:59;49.55;46.44;57.53;;
85755;Laerm;76194;51.984;5.760;2024-02-23T04:04:28;50.29;45.90;56.74;;
85755;Laerm;76194;51.984;5.760;2024-02-23T04:06:57;50.51;46.12;56.94;;
85755;Laerm;76194;51.984;5.760;2024-02-23T04:09:28;51.97;45.45;57.73;;
85755;Laerm;76194;51.984;5.760;2024-02-23T04:11:57;51.48;47.70;57.45;;
85755;Laerm;76194;51.984;5.760;2024-02-23T04:14:26;50.67;45.50;56.19;;
85755;Laerm;76194;51.984;5.760;2024-02-23T04:16:54;50.49;44.90;54.81;;
85755;Laerm;76194;51.984;5.760;2024-02-23T04:19:23;51.03;46.82;57.19;;
85755;Laerm;76194;51.984;5.760;2024-02-23T04:21:52;51.27;46.36;59.48;;
85755;Laerm;76194;51.984;5.760;2024-02-23T04:24:20;50.52;46.42;56.12;;
85755;Laerm;76194;51.984;5.760;2024-02-23T04:26:52;50.97;46.41;57.94;;
85755;Laerm;76194;51.984;5.760;2024-02-23T04:29:21;52.29;47.95;56.69;;
85755;Laerm;76194;51.984;5.760;2024-02-23T04:31:49;52.22;47.36;58.57;;
85755;Laerm;76194;51.984;5.760;2024-02-23T04:34:18;51.79;46.78;58.34;;
85755;Laerm;76194;51.984;5.760;2024-02-23T04:36:47;52.06;48.15;55.89;;
85755;Laerm;76194;51.984;5.760;2024-02-23T04:39:15;52.07;47.82;56.18;;
85755;Laerm;76194;51.984;5.760;2024-02-23T04:41:44;51.99;46.35;58.81;;
85755;Laerm;76194;51.984;5.760;2024-02-23T04:44:15;53.22;47.66;60.35;;
85755;Laerm;76194;51.984;5.760;2024-02-23T04:46:44;53.49;50.42;57.33;;
85755;Laerm;76194;51.984;5.760;2024-02-23T04:49:13;52.23;48.05;57.65;;
85755;Laerm;76194;51.984;5.760;2024-02-23T04:51:42;53.44;49.39;58.09;;
85755;Laerm;76194;51.984;5.760;2024-02-23T04:54:11;53.42;49.67;59.46;;
85755;Laerm;76194;51.984;5.760;2024-02-23T04:56:39;53.31;49.83;58.04;;
85755;Laerm;76194;51.984;5.760;2024-02-23T04:59:08;53.64;48.82;58.26;;
85755;Laerm;76194;51.984;5.760;2024-02-23T05:01:39;52.78;48.84;59.87;;
85755;Laerm;76194;51.984;5.760;2024-02-23T05:04:08;54.07;48.94;58.68;;
85755;Laerm;76194;51.984;5.760;2024-02-23T05:06:37;54.51;50.42;60.78;;
85755;Laerm;76194;51.984;5.760;2024-02-23T05:09:07;54.10;50.35;58.83;;
85755;Laerm;76194;51.984;5.760;2024-02-23T05:11:36;54.19;49.98;60.98;;
85755;Laerm;76194;51.984;5.760;2024-02-23T05:14:05;53.79;50.49;59.52;;
85755;Laerm;76194;51.984;5.760;2024-02-23T05:16:34;54.53;50.57;59.20;;
85755;Laerm;76194;51.984;5.760;2024-02-23T05:19:05;54.09;49.88;58.66;;
85755;Laerm;76194;51.984;5.760;2024-02-23T05:21:34;54.92;50.98;59.37;;
85755;Laerm;76194;51.984;5.760;2024-02-23T05:24:03;54.08;50.48;60.48;;
85755;Laerm;76194;51.984;5.760;2024-02-23T05:26:32;54.71;51.13;59.48;;
85755;Laerm;76194;51.984;5.760;2024-02-23T05:29:01;55.55;51.71;59.21;;
85755;Laerm;76194;51.984;5.760;2024-02-23T05:31:43;55.90;51.85;62.03;;
85755;Laerm;76194;51.984;5.760;2024-02-23T05:34:15;55.75;50.99;61.00;;
85755;Laerm;76194;51.984;5.760;2024-02-23T05:36:44;55.82;52.25;60.30;;
85755;Laerm;76194;51.984;5.760;2024-02-23T05:39:13;55.20;51.93;58.75;;
85755;Laerm;76194;51.984;5.760;2024-02-23T05:41:42;55.30;50.91;64.19;;
85755;Laerm;76194;51.984;5.760;2024-02-23T05:44:11;55.25;51.35;63.66;;
85755;Laerm;76194;51.984;5.760;2024-02-23T05:46:40;55.45;50.69;61.03;;
85755;Laerm;76194;51.984;5.760;2024-02-23T05:49:11;55.49;50.68;62.74;;
85755;Laerm;76194;51.984;5.760;2024-02-23T05:51:42;55.25;50.32;67.83;;
85755;Laerm;76194;51.984;5.760;2024-02-23T05:54:11;55.59;52.00;61.29;;
85755;Laerm;76194;51.984;5.760;2024-02-23T05:56:39;56.10;52.64;64.23;;
85755;Laerm;76194;51.984;5.760;2024-02-23T05:59:08;55.73;51.87;61.57;;
85755;Laerm;76194;51.984;5.760;2024-02-23T06:01:37;56.15;50.29;62.56;;
85755;Laerm;76194;51.984;5.760;2024-02-23T06:04:06;55.96;51.95;62.83;;
85755;Laerm;76194;51.984;5.760;2024-02-23T06:06:34;56.23;51.86;63.55;;
85755;Laerm;76194;51.984;5.760;2024-02-23T06:09:06;55.56;51.47;62.55;;
85755;Laerm;76194;51.984;5.760;2024-02-23T06:11:35;56.10;52.31;61.61;;
85755;Laerm;76194;51.984;5.760;2024-02-23T06:14:04;56.14;52.06;62.91;;
85755;Laerm;76194;51.984;5.760;2024-02-23T06:16:33;55.77;52.47;64.09;;
85755;Laerm;76194;51.984;5.760;2024-02-23T06:19:02;55.50;51.83;67.77;;
85755;Laerm;76194;51.984;5.760;2024-02-23T06:21:31;56.62;51.51;67.38;;
85755;Laerm;76194;51.984;5.760;2024-02-23T06:24:00;56.56;52.66;67.05;;
85755;Laerm;76194;51.984;5.760;2024-02-23T06:26:32;56.72;52.42;67.16;;
85755;Laerm;76194;51.984;5.760;2024-02-23T06:29:01;55.67;52.09;62.14;;
85755;Laerm;76194;51.984;5.760;2024-02-23T06:31:31;57.32;52.59;69.28;;
85755;Laerm;76194;51.984;5.760;2024-02-23T06:34:00;55.42;52.43;58.94;;
85755;Laerm;76194;51.984;5.760;2024-02-23T06:36:29;55.98;52.72;60.73;;
85755;Laerm;76194;51.984;5.760;2024-02-23T06:38:58;55.89;51.85;62.88;;
85755;Laerm;76194;51.984;5.760;2024-02-23T06:41:27;56.37;52.50;61.81;;
85755;Laerm;76194;51.984;5.760;2024-02-23T06:43:59;56.33;52.11;62.23;;
85755;Laerm;76194;51.984;5.760;2024-02-23T06:46:27;55.65;52.53;59.64;;
85755;Laerm;76194;51.984;5.760;2024-02-23T06:48:56;55.61;52.42;61.24;;
85755;Laerm;76194;51.984;5.760;2024-02-23T06:51:25;56.16;52.24;61.32;;
85755;Laerm;76194;51.984;5.760;2024-02-23T06:53:54;55.33;51.76;61.35;;
85755;Laerm;76194;51.984;5.760;2024-02-23T06:56:22;55.60;52.18;58.91;;
85755;Laerm;76194;51.984;5.760;2024-02-23T06:58:51;56.38;51.89;60.96;;
85755;Laerm;76194;51.984;5.760;2024-02-23T07:01:23;54.90;51.55;59.91;;
85755;Laerm;76194;51.984;5.760;2024-02-23T07:03:52;55.31;52.01;61.36;;
85755;Laerm;76194;51.984;5.760;2024-02-23T07:06:21;56.21;52.33;65.34;;
85755;Laerm;76194;51.984;5.760;2024-02-23T07:08:50;55.86;52.38;59.62;;
85755;Laerm;76194;51.984;5.760;2024-02-23T07:11:19;55.52;52.03;60.22;;
85755;Laerm;76194;51.984;5.760;2024-02-23T07:13:48;54.98;51.83;61.00;;
85755;Laerm;76194;51.984;5.760;2024-02-23T07:16:17;55.85;53.12;60.47;;
85755;Laerm;76194;51.984;5.760;2024-02-23T07:18:48;56.09;53.05;61.01;;
85755;Laerm;76194;51.984;5.760;2024-02-23T07:21:17;56.08;51.82;61.98;;
85755;Laerm;76194;51.984;5.760;2024-02-23T07:23:46;55.06;51.70;59.12;;
85755;Laerm;76194;51.984;5.760;2024-02-23T07:26:15;55.68;53.15;60.01;;
85755;Laerm;76194;51.984;5.760;2024-02-23T07:28:45;55.97;50.77;60.52;;
85755;Laerm;76194;51.984;5.760;2024-02-23T07:31:14;56.86;51.93;67.76;;
85755;Laerm;76194;51.984;5.760;2024-02-23T07:33:43;55.57;52.18;60.26;;
85755;Laerm;76194;51.984;5.760;2024-02-23T07:36:16;56.60;52.83;61.87;;
85755;Laerm;76194;51.984;5.760;2024-02-23T07:38:45;55.13;51.30;59.09;;
85755;Laerm;76194;51.984;5.760;2024-02-23T07:41:14;55.37;51.54;59.00;;
85755;Laerm;76194;51.984;5.760;2024-02-23T07:43:43;55.54;51.58;61.20;;
85755;Laerm;76194;51.984;5.760;2024-02-23T07:46:12;56.44;52.91;61.83;;
85755;Laerm;76194;51.984;5.760;2024-02-23T07:48:41;55.49;51.96;61.28;;
85755;Laerm;76194;51.984;5.760;2024-02-23T07:51:10;55.97;51.79;59.30;;
85755;Laerm;76194;51.984;5.760;2024-02-23T07:53:41;55.56;51.52;63.86;;
85755;Laerm;76194;51.984;5.760;2024-02-23T07:56:10;55.66;52.26;59.97;;
85755;Laerm;76194;51.984;5.760;2024-02-23T07:58:39;56.26;53.07;59.47;;
85755;Laerm;76194;51.984;5.760;2024-02-23T08:01:08;55.85;51.86;60.22;;
85755;Laerm;76194;51.984;5.760;2024-02-23T08:03:36;56.72;51.48;67.37;;
85755;Laerm;76194;51.984;5.760;2024-02-23T08:06:05;55.95;52.38;60.80;;
85755;Laerm;76194;51.984;5.760;2024-02-23T08:08:34;56.47;52.26;65.13;;
85755;Laerm;76194;51.984;5.760;2024-02-23T08:11:06;55.34;51.22;63.16;;
85755;Laerm;76194;51.984;5.760;2024-02-23T08:13:35;55.23;50.37;60.27;;
85755;Laerm;76194;51.984;5.760;2024-02-23T08:16:04;55.13;51.36;59.15;;
85755;Laerm;76194;51.984;5.760;2024-02-23T08:18:32;55.07;51.05;59.83;;
85755;Laerm;76194;51.984;5.760;2024-02-23T08:21:01;56.40;51.64;62.88;;
85755;Laerm;76194;51.984;5.760;2024-02-23T08:23:31;56.53;52.81;65.37;;
85755;Laerm;76194;51.984;5.760;2024-02-23T08:25:59;55.55;52.15;64.01;;
85755;Laerm;76194;51.984;5.760;2024-02-23T08:28:31;56.61;52.40;64.39;;
85755;Laerm;76194;51.984;5.760;2024-02-23T08:30:59;56.03;51.62;60.61;;
85755;Laerm;76194;51.984;5.760;2024-02-23T08:33:28;56.92;52.16;62.29;;
85755;Laerm;76194;51.984;5.760;2024-02-23T08:35:57;55.86;52.59;61.39;;
85755;Laerm;76194;51.984;5.760;2024-02-23T08:38:26;56.68;52.01;66.71;;
85755;Laerm;76194;51.984;5.760;2024-02-23T08:40:55;55.70;51.83;62.33;;
85755;Laerm;76194;51.984;5.760;2024-02-23T08:43:24;55.30;51.47;59.50;;
85755;Laerm;76194;51.984;5.760;2024-02-23T08:45:55;55.41;51.82;60.75;;
85755;Laerm;76194;51.984;5.760;2024-02-23T08:48:24;54.77;49.73;62.61;;
85755;Laerm;76194;51.984;5.760;2024-02-23T08:50:53;55.24;52.23;61.07;;
85755;Laerm;76194;51.984;5.760;2024-02-23T08:53:21;55.52;52.37;59.21;;
85755;Laerm;76194;51.984;5.760;2024-02-23T08:55:50;55.95;52.23;62.27;;
85755;Laerm;76194;51.984;5.760;2024-02-23T08:58:19;55.54;51.69;60.25;;
85755;Laerm;76194;51.984;5.760;2024-02-23T09:00:48;54.88;51.44;58.68;;
85755;Laerm;76194;51.984;5.760;2024-02-23T09:03:19;56.16;52.32;61.00;;
85755;Laerm;76194;51.984;5.760;2024-02-23T09:05:48;56.35;52.87;66.09;;
85755;Laerm;76194;51.984;5.760;2024-02-23T09:08:17;55.39;52.05;59.58;;
85755;Laerm;76194;51.984;5.760;2024-02-23T09:10:45;56.21;52.15;60.43;;
85755;Laerm;76194;51.984;5.760;2024-02-23T09:13:14;56.27;52.25;61.92;;
85755;Laerm;76194;51.984;5.760;2024-02-23T09:15:43;56.21;52.68;59.92;;
85755;Laerm;76194;51.984;5.760;2024-02-23T09:18:12;55.87;52.16;62.07;;
85755;Laerm;76194;51.984;5.760;2024-02-23T09:20:43;55.82;52.22;59.76;;
85755;Laerm;76194;51.984;5.760;2024-02-23T09:23:12;55.47;50.88;59.33;;
85755;Laerm;76194;51.984;5.760;2024-02-23T09:25:41;56.59;52.65;61.73;;
85755;Laerm;76194;51.984;5.760;2024-02-23T09:28:09;55.23;50.45;60.43;;
85755;Laerm;76194;51.984;5.760;2024-02-23T09:30:39;55.63;51.64;61.59;;
85755;Laerm;76194;51.984;5.760;2024-02-23T09:33:07;55.47;50.90;63.61;;
85755;Laerm;76194;51.984;5.760;2024-02-23T09:35:36;55.53;52.24;59.90;;
85755;Laerm;76194;51.984;5.760;2024-02-23T09:38:06;56.22;52.03;60.01;;
85755;Laerm;76194;51.984;5.760;2024-02-23T09:40:35;56.97;52.24;69.43;;
85755;Laerm;76194;51.984;5.760;2024-02-23T09:43:04;55.33;50.62;59.82;;
85755;Laerm;76194;51.984;5.760;2024-02-23T09:45:36;54.88;51.35;59.22;;
85755;Laerm;76194;51.984;5.760;2024-02-23T09:48:06;54.66;51.63;58.81;;
85755;Laerm;76194;51.984;5.760;2024-02-23T09:50:35;55.69;51.38;60.47;;
85755;Laerm;76194;51.984;5.760;2024-02-23T09:53:08;56.13;53.11;60.92;;
85755;Laerm;76194;51.984;5.760;2024-02-23T09:55:39;55.33;51.25;61.20;;
85755;Laerm;76194;51.984;5.760;2024-02-23T09:58:08;56.22;52.01;60.55;;
85755;Laerm;76194;51.984;5.760;2024-02-23T10:00:38;55.83;53.01;58.72;;
85755;Laerm;76194;51.984;5.760;2024-02-23T10:03:06;55.83;51.96;60.53;;
85755;Laerm;76194;51.984;5.760;2024-02-23T10:05:35;56.37;52.99;63.00;;
85755;Laerm;76194;51.984;5.760;2024-02-23T10:08:04;55.16;51.43;60.51;;
85755;Laerm;76194;51.984;5.760;2024-02-23T10:10:35;55.43;51.56;60.00;;
85755;Laerm;76194;51.984;5.760;2024-02-23T10:13:06;55.67;51.76;61.62;;
85755;Laerm;76194;51.984;5.760;2024-02-23T10:15:35;55.44;51.78;60.18;;
85755;Laerm;76194;51.984;5.760;2024-02-23T10:18:04;55.11;51.39;58.71;;
85755;Laerm;76194;51.984;5.760;2024-02-23T10:20:33;55.43;52.26;59.81;;
85755;Laerm;76194;51.984;5.760;2024-02-23T10:23:02;55.83;52.33;60.10;;
85755;Laerm;76194;51.984;5.760;2024-02-23T10:25:33;55.45;52.21;61.45;;
85755;Laerm;76194;51.984;5.760;2024-02-23T10:28:04;55.10;51.09;62.33;;
85755;Laerm;76194;51.984;5.760;2024-02-23T10:30:36;55.26;51.76;59.69;;
85755;Laerm;76194;51.984;5.760;2024-02-23T10:33:05;55.58;51.93;61.20;;
85755;Laerm;76194;51.984;5.760;2024-02-23T10:35:34;56.33;52.61;61.44;;
85755;Laerm;76194;51.984;5.760;2024-02-23T10:38:07;55.96;52.41;63.58;;
85755;Laerm;76194;51.984;5.760;2024-02-23T10:40:37;65.67;52.65;84.53;;
85755;Laerm;76194;51.984;5.760;2024-02-23T10:43:12;55.15;51.39;59.23;;
85755;Laerm;76194;51.984;5.760;2024-02-23T10:45:45;54.58;50.55;58.63;;
85755;Laerm;76194;51.984;5.760;2024-02-23T10:48:14;55.74;51.98;61.90;;
85755;Laerm;76194;51.984;5.760;2024-02-23T10:50:43;56.49;53.16;59.81;;
85755;Laerm;76194;51.984;5.760;2024-02-23T10:53:12;56.02;51.97;62.00;;
85755;Laerm;76194;51.984;5.760;2024-02-23T10:55:42;56.62;52.43;63.30;;
85755;Laerm;76194;51.984;5.760;2024-02-23T10:58:14;56.58;52.78;60.78;;
85755;Laerm;76194;51.984;5.760;2024-02-23T11:00:43;56.00;52.39;61.76;;
85755;Laerm;76194;51.984;5.760;2024-02-23T11:03:12;56.02;51.08;61.13;;
85755;Laerm;76194;51.984;5.760;2024-02-23T11:05:42;55.10;52.14;60.58;;
85755;Laerm;76194;51.984;5.760;2024-02-23T11:08:11;55.31;52.23;59.13;;
85755;Laerm;76194;51.984;5.760;2024-02-23T11:10:47;55.25;52.02;58.59;;
85755;Laerm;76194;51.984;5.760;2024-02-23T11:13:20;55.61;51.34;61.46;;
85755;Laerm;76194;51.984;5.760;2024-02-23T11:16:01;54.88;51.26;60.54;;
85755;Laerm;76194;51.984;5.760;2024-02-23T11:18:30;54.94;51.60;58.48;;
85755;Laerm;76194;51.984;5.760;2024-02-23T11:21:01;54.85;51.34;59.97;;
85755;Laerm;76194;51.984;5.760;2024-02-23T11:23:38;55.36;52.47;60.90;;
85755;Laerm;76194;51.984;5.760;2024-02-23T11:26:09;54.48;51.58;58.13;;
85755;Laerm;76194;51.984;5.760;2024-02-23T11:28:46;54.61;51.59;58.83;;
85755;Laerm;76194;51.984;5.760;2024-02-23T11:31:19;54.83;50.19;59.19;;
85755;Laerm;76194;51.984;5.760;2024-02-23T11:33:48;55.28;51.17;60.27;;
85755;Laerm;76194;51.984;5.760;2024-02-23T11:36:23;54.70;51.77;57.27;;
85755;Laerm;76194;51.984;5.760;2024-02-23T11:38:53;55.66;51.39;59.37;;
85755;Laerm;76194;51.984;5.760;2024-02-23T11:41:22;55.44;51.78;62.27;;
85755;Laerm;76194;51.984;5.760;2024-02-23T11:43:54;55.51;50.44;59.53;;
85755;Laerm;76194;51.984;5.760;2024-02-23T11:46:23;55.40;51.63;59.09;;
85755;Laerm;76194;51.984;5.760;2024-02-23T11:48:52;54.72;51.47;59.60;;
85755;Laerm;76194;51.984;5.760;2024-02-23T11:51:21;54.31;51.15;59.14;;
85755;Laerm;76194;51.984;5.760;2024-02-23T11:53:54;53.85;50.40;56.61;;
85755;Laerm;76194;51.984;5.760;2024-02-23T11:56:25;54.08;50.04;58.36;;
85755;Laerm;76194;51.984;5.760;2024-02-23T11:58:56;54.02;51.22;58.53;;
85755;Laerm;76194;51.984;5.760;2024-02-23T12:01:28;53.64;50.13;58.41;;
85755;Laerm;76194;51.984;5.760;2024-02-23T12:03:57;53.89;49.75;58.56;;
85755;Laerm;76194;51.984;5.760;2024-02-23T12:06:23;55.45;51.12;64.66;;
85755;Laerm;76194;51.984;5.760;2024-02-23T12:08:55;53.68;49.68;62.25;;
85755;Laerm;76194;51.984;5.760;2024-02-23T12:11:24;54.44;51.43;59.32;;
85755;Laerm;76194;51.984;5.760;2024-02-23T12:13:53;53.78;50.90;60.19;;
85755;Laerm;76194;51.984;5.760;2024-02-23T12:16:26;54.61;51.49;59.17;;
85755;Laerm;76194;51.984;5.760;2024-02-23T12:18:55;54.51;51.56;62.79;;
85755;Laerm;76194;51.984;5.760;2024-02-23T12:21:24;53.69;49.50;57.74;;
85755;Laerm;76194;51.984;5.760;2024-02-23T12:23:52;53.79;50.71;58.66;;
85755;Laerm;76194;51.984;5.760;2024-02-23T12:26:21;54.87;50.70;61.06;;
85755;Laerm;76194;51.984;5.760;2024-02-23T12:28:50;54.70;51.05;59.12;;
85755;Laerm;76194;51.984;5.760;2024-02-23T12:31:25;54.47;49.39;61.92;;
85755;Laerm;76194;51.984;5.760;2024-02-23T12:33:54;55.02;51.20;62.29;;
85755;Laerm;76194;51.984;5.760;2024-02-23T12:36:25;54.57;50.76;63.15;;
85755;Laerm;76194;51.984;5.760;2024-02-23T12:38:54;54.88;49.50;62.96;;
85755;Laerm;76194;51.984;5.760;2024-02-23T12:41:22;54.46;49.96;61.06;;
85755;Laerm;76194;51.984;5.760;2024-02-23T12:43:51;54.94;51.63;60.53;;
85755;Laerm;76194;51.984;5.760;2024-02-23T12:46:20;54.52;50.61;60.62;;
85755;Laerm;76194;51.984;5.760;2024-02-23T12:48:51;54.80;50.98;63.85;;
85755;Laerm;76194;51.984;5.760;2024-02-23T12:51:24;54.31;51.59;64.06;;
85755;Laerm;76194;51.984;5.760;2024-02-23T12:53:53;54.80;51.22;65.40;;
85755;Laerm;76194;51.984;5.760;2024-02-23T12:56:22;54.86;50.75;66.36;;
85755;Laerm;76194;51.984;5.760;2024-02-23T12:58:50;54.84;50.48;65.22;;
85755;Laerm;76194;51.984;5.760;2024-02-23T13:01:20;53.71;49.38;57.91;;
85755;Laerm;76194;51.984;5.760;2024-02-23T13:03:52;53.98;49.22;63.88;;
85755;Laerm;76194;51.984;5.760;2024-02-23T13:06:21;54.22;50.39;68.04;;
85755;Laerm;76194;51.984;5.760;2024-02-23T13:08:50;52.81;49.12;61.75;;
85755;Laerm;76194;51.984;5.760;2024-02-23T13:11:19;52.85;49.23;63.34;;
85755;Laerm;76194;51.984;5.760;2024-02-23T13:13:47;51.97;48.82;61.59;;
85755;Laerm;76194;51.984;5.760;2024-02-23T13:16:16;53.77;49.16;60.26;;
85755;Laerm;76194;51.984;5.760;2024-02-23T13:18:45;53.08;49.65;61.86;;
85755;Laerm;76194;51.984;5.760;2024-02-23T13:21:17;53.12;50.02;56.45;;
85755;Laerm;76194;51.984;5.760;2024-02-23T13:23:46;55.76;51.04;69.55;;
85755;Laerm;76194;51.984;5.760;2024-02-23T13:26:14;55.09;51.30;62.07;;
85755;Laerm;76194;51.984;5.760;2024-02-23T13:28:43;53.10;49.51;67.32;;
85755;Laerm;76194;51.984;5.760;2024-02-23T13:31:12;52.90;49.65;56.78;;
85755;Laerm;76194;51.984;5.760;2024-02-23T13:33:42;53.41;49.49;58.47;;
85755;Laerm;76194;51.984;5.760;2024-02-23T13:36:11;54.16;50.63;59.91;;
85755;Laerm;76194;51.984;5.760;2024-02-23T13:38:42;54.27;51.11;60.07;;
85755;Laerm;76194;51.984;5.760;2024-02-23T13:41:11;53.34;50.85;57.19;;
85755;Laerm;76194;51.984;5.760;2024-02-23T13:43:40;54.65;51.52;58.75;;
85755;Laerm;76194;51.984;5.760;2024-02-23T13:46:08;54.16;50.65;58.00;;
85755;Laerm;76194;51.984;5.760;2024-02-23T13:48:37;53.24;49.51;57.91;;
85755;Laerm;76194;51.984;5.760;2024-02-23T13:51:06;64.98;50.26;82.33;;
85755;Laerm;76194;51.984;5.760;2024-02-23T13:53:35;54.31;51.08;58.27;;
85755;Laerm;76194;51.984;5.760;2024-02-23T13:56:07;53.60;49.88;58.03;;